Time;durP1;ratioP1;P1;durP2;ratioP2;P2;SDS_P1;SDS_P2;PMS_P1;PMS_P2;Temp;Humidity;BMP_temperature;BMP_pressure;BME280_temperature;BME280_humidity;BME280_pressure;Samples;Min_cycle;Max_cycle;Signal;HPM_P1;HPM_P2
2022/04/05 00:00:36;;;;;;;;;;;;;;;2.70;100.00;97022.84;1642490;86;25982;-86
2022/04/05 00:03:04;;;;;;;;;;;;;;;2.67;100.00;97020.47;1648917;86;21255;-87
2022/04/05 00:05:30;;;;;;;;;;;;;;;2.63;100.00;97016.39;1652302;86;20227;-83
2022/04/05 00:07:56;;;;;;;;;;;;;;;2.61;100.00;97015.20;1650628;86;24977;-83
2022/04/05 00:10:22;;;;;;;;;;;;;;;2.59;100.00;97013.17;1648836;86;20243;-83
2022/04/05 00:12:48;;;;;;;;;;;;;;;2.58;100.00;97014.55;1647468;86;26072;-83
2022/04/05 00:15:15;;;;;;;;;;;;;;;2.56;100.00;97005.63;1647945;86;25068;-83
2022/04/05 00:17:41;;;;;;;;;;;;;;;2.57;100.00;97006.42;1645088;86;20490;-83
2022/04/05 00:20:07;;;;;;;;;;;;;;;2.52;100.00;97007.54;1647858;86;20224;-83
2022/04/05 00:22:34;;;;;;;;;;;;;;;2.51;100.00;96992.13;1643725;86;22047;-84
2022/04/05 00:25:00;;;;;;;;;;;;;;;2.54;100.00;96995.84;1651764;86;26081;-83
2022/04/05 00:27:26;;;;;;;;;;;;;;;2.54;100.00;96993.25;1646913;86;20274;-83
2022/04/05 00:29:55;;;;;;;;;;;;;;;2.55;100.00;96985.05;1646832;86;20289;-82
2022/04/05 00:32:21;;;;;;;;;;;;;;;2.56;100.00;96990.13;1648833;86;25000;-87
2022/04/05 00:34:47;;;;;;;;;;;;;;;2.58;100.00;96979.69;1647738;86;22041;-87
2022/04/05 00:37:13;;;;;;;;;;;;;;;2.54;100.00;96973.89;1646396;86;21000;-87
2022/04/05 00:39:39;;;;;;;;;;;;;;;2.52;100.00;96975.27;1647443;86;24349;-86
2022/04/05 00:42:09;;;;;;;;;;;;;;;2.52;100.00;96975.72;1648886;86;20295;-86
2022/04/05 00:44:35;;;;;;;;;;;;;;;2.50;100.00;96967.27;1646722;86;24904;-86
2022/04/05 00:47:05;;;;;;;;;;;;;;;2.47;100.00;96959.69;1649529;86;20832;-86
2022/04/05 00:49:33;;;;;;;;;;;;;;;2.45;100.00;96966.25;1635101;86;27067;-85
2022/04/05 00:51:59;;;;;;;;;;;;;;;2.44;100.00;96965.05;1635435;87;24569;-85
2022/04/05 00:54:26;;;;;;;;;;;;;;;2.41;100.00;96964.76;1635602;87;20223;-86
2022/04/05 00:56:55;;;;;;;;;;;;;;;2.41;100.00;96962.64;1634860;87;24824;-85
2022/04/05 00:59:21;;;;;;;;;;;;;;;2.39;100.00;96958.88;1634359;87;22041;-85
2022/04/05 01:01:50;;;;;;;;;;;;;;;2.40;100.00;96967.45;1635426;87;26099;-86
2022/04/05 01:04:16;;;;;;;;;;;;;;;2.41;100.00;96962.64;1635373;87;24522;-86
2022/04/05 01:06:44;;;;;;;;;;;;;;;2.40;100.00;96970.84;1635575;87;20525;-86
2022/04/05 01:09:10;;;;;;;;;;;;;;;2.37;100.00;96965.88;1632993;87;24956;-86
2022/04/05 01:11:49;;;;;;;;;;;;;;;2.35;100.00;96956.55;1635426;87;21991;-86
2022/04/05 01:14:15;;;;;;;;;;;;;;;2.36;100.00;96960.80;1635494;87;26277;-86
2022/04/05 01:16:41;;;;;;;;;;;;;;;2.35;100.00;96959.97;1635281;87;24543;-86
2022/04/05 01:19:08;;;;;;;;;;;;;;;2.34;100.00;96962.20;1635679;87;20280;-86
2022/04/05 01:21:37;;;;;;;;;;;;;;;2.34;100.00;96964.78;1635678;87;25395;-86
2022/04/05 01:24:08;;;;;;;;;;;;;;;2.37;100.00;96962.46;1635747;87;22155;-86
2022/04/05 01:26:38;;;;;;;;;;;;;;;2.38;100.00;96967.55;1635542;87;26049;-86
2022/04/05 01:29:04;;;;;;;;;;;;;;;2.38;100.00;96957.22;1635204;87;24523;-86
2022/04/05 01:31:41;;;;;;;;;;;;;;;2.36;100.00;96947.43;1635194;87;20403;-86
2022/04/05 01:34:14;;;;;;;;;;;;;;;2.35;100.00;96942.36;1635013;87;25738;-86
2022/04/05 01:36:44;;;;;;;;;;;;;;;2.36;100.00;96960.34;1635536;87;21459;-87
2022/04/05 01:39:15;;;;;;;;;;;;;;;2.37;100.00;96954.27;1635025;87;26067;-86
2022/04/05 01:41:41;;;;;;;;;;;;;;;2.37;100.00;96944.39;1635098;87;24501;-86
2022/04/05 01:44:13;;;;;;;;;;;;;;;2.37;100.00;96946.98;1635387;87;20305;-86
2022/04/05 01:46:40;;;;;;;;;;;;;;;2.36;100.00;96948.72;1635327;87;25788;-85
2022/04/05 01:49:09;;;;;;;;;;;;;;;2.35;100.00;96954.80;1642520;86;22078;-85
2022/04/05 01:51:39;;;;;;;;;;;;;;;2.35;100.00;96948.81;1647282;86;26433;-85
2022/04/05 01:54:05;;;;;;;;;;;;;;;2.35;100.00;96953.52;1649734;86;24488;-86
2022/04/05 01:56:32;;;;;;;;;;;;;;;2.33;100.00;96942.47;1647654;86;20472;-85
2022/04/05 01:58:59;;;;;;;;;;;;;;;2.34;100.00;96946.72;1646083;86;25047;-86
2022/04/05 02:01:28;;;;;;;;;;;;;;;2.33;100.00;96946.34;1650141;86;21954;-86
2022/04/05 02:03:54;;;;;;;;;;;;;;;2.33;100.00;96937.31;1648969;86;26085;-86
2022/04/05 02:06:26;;;;;;;;;;;;;;;2.32;100.00;96939.52;1647201;86;24513;-85
2022/04/05 02:08:52;;;;;;;;;;;;;;;2.32;100.00;96945.14;1643643;86;20220;-85
2022/04/05 02:11:20;;;;;;;;;;;;;;;2.31;100.00;96941.72;1651880;86;24977;-86
2022/04/05 02:13:46;;;;;;;;;;;;;;;2.33;100.00;96934.73;1648142;86;22076;-88
2022/04/05 02:16:12;;;;;;;;;;;;;;;2.34;100.00;96927.81;1648897;86;21060;-87
2022/04/05 02:18:38;;;;;;;;;;;;;;;2.35;100.00;96928.16;1645857;86;20332;-83
2022/04/05 02:21:05;;;;;;;;;;;;;;;2.38;100.00;96921.53;1644720;86;20336;-83
2022/04/05 02:23:31;;;;;;;;;;;;;;;2.40;100.00;96926.16;1645844;86;25022;-83
2022/04/05 02:25:57;;;;;;;;;;;;;;;2.41;100.00;96920.04;1645237;86;21998;-84
2022/04/05 02:28:23;;;;;;;;;;;;;;;2.45;100.00;96921.53;1649011;86;21037;-84
2022/04/05 02:30:50;;;;;;;;;;;;;;;2.47;100.00;96917.92;1647439;86;24393;-84
2022/04/05 02:33:17;;;;;;;;;;;;;;;2.50;100.00;96906.13;1651446;86;20222;-83
2022/04/05 02:35:43;;;;;;;;;;;;;;;2.54;100.00;96895.14;1651353;86;25043;-83
2022/04/05 02:38:10;;;;;;;;;;;;;;;2.55;100.00;96894.22;1651479;86;21999;-83
2022/04/05 02:40:42;;;;;;;;;;;;;;;2.59;100.00;96898.26;1651060;86;26090;-83
2022/04/05 02:43:08;;;;;;;;;;;;;;;2.63;100.00;96893.72;1649967;86;24619;-82
2022/04/05 02:45:37;;;;;;;;;;;;;;;2.67;100.00;96906.83;1645841;86;20901;-83
2022/04/05 02:48:04;;;;;;;;;;;;;;;2.71;100.00;96906.53;1649299;86;25727;-83
2022/04/05 02:50:30;;;;;;;;;;;;;;;2.74;100.00;96901.16;1647297;86;22033;-83
2022/04/05 02:52:56;;;;;;;;;;;;;;;2.77;100.00;96898.41;1645759;86;27512;-83
2022/04/05 02:55:22;;;;;;;;;;;;;;;2.81;100.00;96889.98;1653540;86;20257;-84
2022/04/05 02:57:50;;;;;;;;;;;;;;;2.84;100.00;96893.19;1647471;86;20315;-84
2022/04/05 03:00:16;;;;;;;;;;;;;;;2.86;100.00;96906.85;1648584;86;25051;-84
2022/04/05 03:02:42;;;;;;;;;;;;;;;2.88;100.00;96892.09;1648725;85;21947;-83
2022/04/05 03:05:09;;;;;;;;;;;;;;;2.93;100.00;96892.63;1630243;88;26052;-83
2022/04/05 03:07:36;;;;;;;;;;;;;;;2.96;100.00;96891.59;1624926;86;24460;-83
2022/04/05 03:10:06;;;;;;;;;;;;;;;2.97;100.00;96889.38;1629437;86;20223;-83
2022/04/05 03:12:35;;;;;;;;;;;;;;;2.99;100.00;96890.58;1628393;88;25903;-83
2022/04/05 03:15:02;;;;;;;;;;;;;;;3.01;100.00;96884.36;1629639;87;22658;-83
2022/04/05 03:17:28;;;;;;;;;;;;;;;3.04;100.00;96885.94;1649755;86;26064;-84
2022/04/05 03:19:55;;;;;;;;;;;;;;;3.04;100.00;96880.77;1649962;86;24420;-86
2022/04/05 03:22:21;;;;;;;;;;;;;;;3.05;100.00;96887.14;1650293;86;20468;-86
2022/04/05 03:24:47;;;;;;;;;;;;;;;3.06;100.00;96890.52;1652777;86;20200;-87
2022/04/05 03:27:13;;;;;;;;;;;;;;;3.06;100.00;96887.48;1644625;86;21962;-86
2022/04/05 03:29:45;;;;;;;;;;;;;;;3.08;100.00;96888.68;1646691;86;26037;-86
2022/04/05 03:32:20;;;;;;;;;;;;;;;3.09;100.00;96874.84;1647337;86;24510;-86
2022/04/05 03:34:49;;;;;;;;;;;;;;;3.08;100.00;96881.76;1644759;86;20223;-84
2022/04/05 03:37:15;;;;;;;;;;;;;;;3.10;100.00;96879.08;1649684;86;25962;-85
2022/04/05 03:39:41;;;;;;;;;;;;;;;3.08;100.00;96875.76;1650288;86;22049;-85
2022/04/05 03:42:07;;;;;;;;;;;;;;;3.10;100.00;96874.75;1651260;86;21010;-85
2022/04/05 03:44:40;;;;;;;;;;;;;;;3.12;100.00;96872.04;1647452;86;24718;-85
2022/04/05 03:47:10;;;;;;;;;;;;;;;3.12;100.00;96878.50;1650456;86;20347;-85
2022/04/05 03:49:36;;;;;;;;;;;;;;;3.14;100.00;96874.07;1648329;86;24995;-85
2022/04/05 03:52:02;;;;;;;;;;;;;;;3.15;100.00;96874.44;1653069;86;22027;-86
2022/04/05 03:54:29;;;;;;;;;;;;;;;3.17;100.00;96876.44;1649683;86;26101;-85
2022/04/05 03:56:58;;;;;;;;;;;;;;;3.17;100.00;96873.39;1647204;86;25220;-85
2022/04/05 03:59:25;;;;;;;;;;;;;;;3.20;100.00;96883.55;1644630;86;20284;-86
2022/04/05 04:01:51;;;;;;;;;;;;;;;3.20;100.00;96878.84;1644675;86;25955;-86
2022/04/05 04:04:23;;;;;;;;;;;;;;;3.20;100.00;96878.38;1647715;86;20235;-86
2022/04/05 04:06:49;;;;;;;;;;;;;;;3.19;100.00;96878.02;1649111;86;26255;-87
2022/04/05 04:09:15;;;;;;;;;;;;;;;3.21;100.00;96881.80;1649167;86;24393;-86
2022/04/05 04:11:41;;;;;;;;;;;;;;;3.22;100.00;96876.97;1648052;86;20246;-87
2022/04/05 04:14:08;;;;;;;;;;;;;;;3.21;100.00;96874.88;1647510;86;24937;-86
2022/04/05 04:16:34;;;;;;;;;;;;;;;3.24;100.00;96875.95;1654703;86;22023;-86
2022/04/05 04:19:00;;;;;;;;;;;;;;;3.23;100.00;96877.34;1646823;86;21056;-86
2022/04/05 04:21:29;;;;;;;;;;;;;;;3.26;100.00;96878.45;1645654;86;24500;-86
2022/04/05 04:23:59;;;;;;;;;;;;;;;3.27;100.00;96887.38;1649221;86;20666;-86
2022/04/05 04:26:25;;;;;;;;;;;;;;;3.31;100.00;96884.14;1650080;86;25042;-85
2022/04/05 04:28:52;;;;;;;;;;;;;;;3.34;100.00;96889.09;1648796;86;22053;-84
2022/04/05 04:31:18;;;;;;;;;;;;;;;3.34;100.00;96889.09;1651380;86;25982;-85
2022/04/05 04:33:44;;;;;;;;;;;;;;;3.35;100.00;96885.13;1649911;86;24527;-85
2022/04/05 04:36:15;;;;;;;;;;;;;;;3.39;100.00;96889.63;1647762;86;21070;-84
2022/04/05 04:38:41;;;;;;;;;;;;;;;3.41;100.00;96891.66;1647789;86;25206;-84
2022/04/05 04:41:07;;;;;;;;;;;;;;;3.40;100.00;96891.28;1652892;86;22041;-85
2022/04/05 04:43:33;;;;;;;;;;;;;;;3.42;100.00;96896.36;1649206;86;25971;-85
2022/04/05 04:45:59;;;;;;;;;;;;;;;3.40;100.00;96889.16;1650436;86;20803;-85
2022/04/05 04:48:31;;;;;;;;;;;;;;;3.38;100.00;96891.03;1648152;86;20301;-85
2022/04/05 04:50:57;;;;;;;;;;;;;;;3.36;100.00;96894.55;1635052;86;24977;-87
2022/04/05 04:53:24;;;;;;;;;;;;;;;3.38;100.00;96881.98;1635647;87;22081;-86
2022/04/05 04:55:50;;;;;;;;;;;;;;;3.37;100.00;96879.86;1635003;87;26214;-86
2022/04/05 04:58:16;;;;;;;;;;;;;;;3.35;100.00;96884.30;1635163;87;24491;-86
2022/04/05 05:00:45;;;;;;;;;;;;;;;3.34;100.00;96886.52;1635008;87;20342;-86
2022/04/05 05:03:12;;;;;;;;;;;;;;;3.33;100.00;96891.31;1635359;87;25117;-86
2022/04/05 05:05:38;;;;;;;;;;;;;;;3.33;100.00;96896.48;1635067;87;22423;-85
2022/04/05 05:08:04;;;;;;;;;;;;;;;3.33;100.00;96890.85;1635450;87;20985;-85
2022/04/05 05:10:30;;;;;;;;;;;;;;;3.33;100.00;96892.14;1634733;87;24429;-86
2022/04/05 05:12:59;;;;;;;;;;;;;;;3.31;100.00;96887.56;1635564;87;20324;-86
2022/04/05 05:15:25;;;;;;;;;;;;;;;3.30;100.00;96892.82;1635035;87;25155;-86
2022/04/05 05:17:55;;;;;;;;;;;;;;;3.29;100.00;96893.28;1623024;87;20159;-86
2022/04/05 05:20:27;;;;;;;;;;;;;;;3.27;100.00;96893.84;1635556;87;26869;-86
2022/04/05 05:22:53;;;;;;;;;;;;;;;3.27;100.00;96896.91;1635147;87;24447;-85
2022/04/05 05:25:19;;;;;;;;;;;;;;;3.27;100.00;96889.16;1635057;87;20257;-87
2022/04/05 05:27:45;;;;;;;;;;;;;;;3.25;100.00;96911.22;1635581;87;20731;-86
2022/04/05 05:30:11;;;;;;;;;;;;;;;3.26;100.00;96909.47;1635423;87;20241;-86
2022/04/05 05:32:50;;;;;;;;;;;;;;;3.26;100.00;96910.30;1635047;87;26024;-86
2022/04/05 05:35:17;;;;;;;;;;;;;;;3.25;100.00;96912.98;1634766;87;24386;-84
2022/04/05 05:37:44;;;;;;;;;;;;;;;3.24;100.00;96909.56;1635064;87;20224;-84
2022/04/05 05:40:10;;;;;;;;;;;;;;;3.23;100.00;96923.87;1636638;86;24979;-84
2022/04/05 05:42:48;;;;;;;;;;;;;;;3.25;100.00;96923.31;1635197;87;21965;-84
2022/04/05 05:45:15;;;;;;;;;;;;;;;3.23;100.00;96910.94;1635062;87;26657;-86
2022/04/05 05:47:42;;;;;;;;;;;;;;;3.19;100.00;96925.83;1634728;87;25251;-87
2022/04/05 05:50:10;;;;;;;;;;;;;;;3.16;100.00;96920.05;1631457;87;20232;-86
2022/04/05 05:52:38;;;;;;;;;;;;;;;3.16;100.00;96920.05;1624084;88;25680;-87
2022/04/05 05:55:04;;;;;;;;;;;;;;;3.15;100.00;96920.97;1624216;88;22021;-86
2022/04/05 05:57:30;;;;;;;;;;;;;;;3.13;100.00;96918.93;1601258;89;26120;-86
2022/04/05 06:00:01;;;;;;;;;;;;;;;3.12;100.00;96915.97;1588992;90;24500;-86
2022/04/05 06:02:30;;;;;;;;;;;;;;;3.10;100.00;96923.85;1616745;88;20570;-86
2022/04/05 06:04:56;;;;;;;;;;;;;;;3.11;100.00;96930.65;1619040;88;25134;-86
2022/04/05 06:07:22;;;;;;;;;;;;;;;3.10;100.00;96926.89;1606356;89;21977;-87
2022/04/05 06:09:57;;;;;;;;;;;;;;;3.10;100.00;96931.60;1609293;89;26655;-87
2022/04/05 06:12:23;;;;;;;;;;;;;;;3.12;100.00;96928.90;1608400;89;24460;-86
2022/04/05 06:14:49;;;;;;;;;;;;;;;3.10;100.00;96934.19;1609615;89;20232;-86
2022/04/05 06:17:15;;;;;;;;;;;;;;;3.13;100.00;96930.09;1605915;89;20229;-86
2022/04/05 06:19:43;;;;;;;;;;;;;;;3.14;100.00;96941.27;1606876;89;21938;-87
2022/04/05 06:22:15;;;;;;;;;;;;;;;3.17;100.00;96934.14;1608876;89;27489;-86
2022/04/05 06:24:41;;;;;;;;;;;;;;;3.17;100.00;96935.89;1610168;89;24464;-86
2022/04/05 06:27:07;;;;;;;;;;;;;;;3.19;100.00;96936.63;1610342;88;20274;-87
2022/04/05 06:29:34;;;;;;;;;;;;;;;3.19;100.00;96938.75;1606715;89;25043;-88
2022/04/05 06:32:01;;;;;;;;;;;;;;;3.21;100.00;96931.75;1609065;89;21958;-88
2022/04/05 06:34:27;;;;;;;;;;;;;;;3.23;100.00;96942.80;1620523;87;26229;-88
2022/04/05 06:36:53;;;;;;;;;;;;;;;3.25;100.00;96946.58;1619689;87;20273;-86
2022/04/05 06:39:20;;;;;;;;;;;;;;;3.27;100.00;96945.53;1597120;90;20598;-86
2022/04/05 06:41:46;;;;;;;;;;;;;;;3.28;100.00;96939.45;1598586;89;25036;-87
2022/04/05 06:44:12;;;;;;;;;;;;;;;3.29;100.00;96948.86;1600054;89;22050;-86
2022/04/05 06:46:38;;;;;;;;;;;;;;;3.31;100.00;96940.56;1599940;89;26956;-85
2022/04/05 06:49:04;;;;;;;;;;;;;;;3.30;100.00;96937.60;1600037;89;20267;-86
2022/04/05 06:51:30;;;;;;;;;;;;;;;3.30;100.00;96949.70;1625199;88;20259;-87
2022/04/05 06:53:57;;;;;;;;;;;;;;;3.31;100.00;96937.14;1633682;88;25010;-86
2022/04/05 06:56:26;;;;;;;;;;;;;;;3.34;100.00;96952.44;1633468;88;21993;-86
2022/04/05 06:58:58;;;;;;;;;;;;;;;3.35;100.00;96945.05;1633682;88;26049;-87
2022/04/05 07:01:24;;;;;;;;;;;;;;;3.36;100.00;96953.18;1633215;88;24469;-86
2022/04/05 07:03:50;;;;;;;;;;;;;;;3.38;100.00;96947.46;1631242;88;20805;-86
2022/04/05 07:06:16;;;;;;;;;;;;;;;3.39;100.00;96941.33;1633115;88;20249;-87
2022/04/05 07:08:42;;;;;;;;;;;;;;;3.42;100.00;96947.62;1633302;88;20368;-87
2022/04/05 07:11:09;;;;;;;;;;;;;;;3.43;100.00;96943.28;1633623;88;26957;-87
2022/04/05 07:13:35;;;;;;;;;;;;;;;3.46;100.00;96950.82;1633046;88;24797;-86
2022/04/05 07:16:02;;;;;;;;;;;;;;;3.50;100.00;96953.10;1633431;88;20233;-87
2022/04/05 07:18:28;;;;;;;;;;;;;;;3.52;100.00;96948.67;1633264;88;24991;-86
2022/04/05 07:20:54;;;;;;;;;;;;;;;3.50;100.00;96954.39;1633214;88;20382;-85
2022/04/05 07:23:20;;;;;;;;;;;;;;;3.56;100.00;96955.75;1633212;88;26057;-86
2022/04/05 07:25:46;;;;;;;;;;;;;;;3.58;100.00;96949.56;1633090;88;24644;-86
2022/04/05 07:28:12;;;;;;;;;;;;;;;3.57;100.00;96965.17;1633329;88;20326;-87
2022/04/05 07:30:38;;;;;;;;;;;;;;;3.55;100.00;96954.92;1633254;88;20232;-87
2022/04/05 07:33:04;;;;;;;;;;;;;;;3.56;100.00;96955.75;1633331;88;21956;-87
2022/04/05 07:35:30;;;;;;;;;;;;;;;3.58;100.00;96967.67;1632936;88;26151;-87
2022/04/05 07:37:56;;;;;;;;;;;;;;;3.61;100.00;96961.45;1633360;88;24721;-87
2022/04/05 07:40:22;;;;;;;;;;;;;;;3.65;100.00;96963.77;1633158;88;20262;-87
2022/04/05 07:42:49;;;;;;;;;;;;;;;3.64;100.00;96962.09;1633439;88;25017;-87
2022/04/05 07:45:16;;;;;;;;;;;;;;;3.65;100.00;96967.64;1633786;88;22104;-87
2022/04/05 07:48:01;;;;;;;;;;;;;;;;;;;;;
2022/04/05 07:50:27;;;;;;;;;;;;;;;3.70;100.00;96975.92;1616977;88;23594;-87
2022/04/05 07:52:54;;;;;;;;;;;;;;;3.73;100.00;96981.35;1601212;88;20334;-86
2022/04/05 07:55:20;;;;;;;;;;;;;;;3.77;100.00;96971.98;1601520;88;25004;-86
2022/04/05 07:57:49;;;;;;;;;;;;;;;3.75;100.00;96979.04;1601249;88;22160;-87
2022/04/05 08:00:15;;;;;;;;;;;;;;;3.77;100.00;96973.74;1607877;88;26133;-87
2022/04/05 08:02:42;;;;;;;;;;;;;;;3.77;100.00;96975.87;1601359;88;24701;-87
2022/04/05 08:05:08;;;;;;;;;;;;;;;3.77;100.00;96978.91;1600639;88;20855;-87
2022/04/05 08:07:34;;;;;;;;;;;;;;;3.78;100.00;96978.82;1602150;88;24939;-87
2022/04/05 08:10:00;;;;;;;;;;;;;;;3.83;100.00;96981.10;1606922;88;20322;-86
2022/04/05 08:12:26;;;;;;;;;;;;;;;3.87;100.00;96979.16;1606839;88;21067;-87
2022/04/05 08:14:52;;;;;;;;;;;;;;;3.86;100.00;96984.80;1602466;88;24597;-86
2022/04/05 08:17:18;;;;;;;;;;;;;;;3.89;100.00;96995.39;1602875;88;20824;-87
2022/04/05 08:19:44;;;;;;;;;;;;;;;3.88;100.00;96994.56;1603056;88;20326;-87
2022/04/05 08:22:10;;;;;;;;;;;;;;;3.93;100.00;96998.97;1605295;88;21953;-87
2022/04/05 08:24:44;;;;;;;;;;;;;;;3.97;100.00;96983.63;1601074;88;26088;-87
2022/04/05 08:27:10;;;;;;;;;;;;;;;4.00;100.00;96994.22;1601262;88;24596;-87
2022/04/05 08:29:40;;;;;;;;;;;;;;;4.03;100.00;96993.57;1603115;88;20797;-87
2022/04/05 08:32:04;;;;;;;;;;;;;;;4.06;100.00;96995.11;1604646;88;25624;-87
2022/04/05 08:34:31;;;;;;;;;;;;;;;4.15;100.00;97000.95;1602588;88;22153;-87
2022/04/05 08:36:58;;;;;;;;;;;;;;;4.17;100.00;96985.70;1603021;88;26065;-87
2022/04/05 08:39:28;;;;;;;;;;;;;;;4.20;100.00;96991.95;1601618;88;24470;-87
2022/04/05 08:42:03;;;;;;;;;;;;;;;4.28;100.00;96994.03;1602208;88;20277;-86
2022/04/05 08:44:33;;;;;;;;;;;;;;;4.32;100.00;96994.18;1602993;88;20211;-86
2022/04/05 08:47:03;;;;;;;;;;;;;;;4.39;100.00;96989.42;1605111;88;22111;-85
2022/04/05 08:49:30;;;;;;;;;;;;;;;4.47;100.00;96993.13;1600153;88;26142;-86
2022/04/05 08:51:56;;;;;;;;;;;;;;;4.50;100.00;96998.12;1600958;88;24493;-85
2022/04/05 08:54:26;;;;;;;;;;;;;;;4.53;100.00;97006.13;1595669;89;20184;-86
2022/04/05 08:56:52;;;;;;;;;;;;;;;4.56;100.00;96999.00;1581915;89;25239;-86
2022/04/05 08:59:18;;;;;;;;;;;;;;;4.56;100.00;97009.82;1597789;88;20259;-87
2022/04/05 09:01:44;;;;;;;;;;;;;;;4.58;100.00;97010.06;1599092;89;26058;-87
2022/04/05 09:04:10;;;;;;;;;;;;;;;4.63;100.00;96998.11;1598323;88;20242;-87
2022/04/05 09:06:36;;;;;;;;;;;;;;;4.64;100.00;96991.97;1598059;89;20346;-87
2022/04/05 09:09:13;;;;;;;;;;;;;;;4.68;100.00;97009.45;1597994;88;24970;-87
2022/04/05 09:11:46;;;;;;;;;;;;;;;4.70;100.00;97007.09;1598513;89;21953;-87
2022/04/05 09:14:12;;;;;;;;;;;;;;;4.72;100.00;97010.42;1600609;88;26064;-87
2022/04/05 09:16:38;;;;;;;;;;;;;;;4.76;100.00;97005.37;1597968;89;24544;-87
2022/04/05 09:19:13;;;;;;;;;;;;;;;4.75;100.00;97016.67;1598898;89;20240;-87
2022/04/05 09:21:54;;;;;;;;;;;;;;;4.79;100.00;97011.66;1598375;89;25004;-86
2022/04/05 09:24:26;;;;;;;;;;;;;;;4.81;100.00;97014.13;1598756;89;22015;-86
2022/04/05 09:26:54;;;;;;;;;;;;;;;4.88;100.00;97025.73;1597093;88;26066;-86
2022/04/05 09:29:20;;;;;;;;;;;;;;;4.88;100.00;97023.14;1596301;89;24810;-86
2022/04/05 09:31:48;;;;;;;;;;;;;;;4.92;100.00;97023.28;1598333;89;20450;-86
2022/04/05 09:34:22;;;;;;;;;;;;;;;4.92;100.00;97029.30;1597706;88;25967;-86
2022/04/05 09:36:51;;;;;;;;;;;;;;;4.92;100.00;97025.41;1608337;88;22676;-86
2022/04/05 09:39:19;;;;;;;;;;;;;;;4.89;100.00;97039.06;1591741;89;26050;-85
2022/04/05 09:41:48;;;;;;;;;;;;;;;4.92;100.00;97037.54;1573991;89;20567;-85
2022/04/05 09:44:16;;;;;;;;;;;;;;;4.94;100.00;97041.70;1610809;87;20202;-85
2022/04/05 09:46:42;;;;;;;;;;;;;;;4.93;100.00;97034.02;1609076;88;25281;-86
2022/04/05 09:49:12;;;;;;;;;;;;;;;4.92;100.00;97043.55;1611328;89;22129;-86
2022/04/05 09:51:43;;;;;;;;;;;;;;;4.95;100.00;97043.83;1619928;88;26266;-86
2022/04/05 09:54:19;;;;;;;;;;;;;;;4.98;100.00;97039.24;1631200;88;25392;-87
2022/04/05 09:56:45;;;;;;;;;;;;;;;5.02;100.00;97025.59;1632178;88;20258;-87
2022/04/05 09:59:14;;;;;;;;;;;;;;;5.05;100.00;97035.30;1631951;88;24977;-86
2022/04/05 10:01:40;;;;;;;;;;;;;;;5.07;100.00;97030.02;1632406;88;21899;-86
2022/04/05 10:04:08;;;;;;;;;;;;;;;5.09;100.00;97034.60;1632608;88;26146;-86
2022/04/05 10:06:38;;;;;;;;;;;;;;;5.12;100.00;97034.88;1632646;88;24765;-86
2022/04/05 10:09:03;;;;;;;;;;;;;;;5.16;100.00;97035.01;1632555;87;20239;-86
2022/04/05 10:11:30;;;;;;;;;;;;;;;5.19;100.00;97020.05;1633164;87;25164;-87
2022/04/05 10:13:57;;;;;;;;;;;;;;;5.23;100.00;97038.37;1632705;88;22172;-87
2022/04/05 10:16:25;;;;;;;;;;;;;;;5.27;100.00;97045.45;1632717;88;26048;-86
2022/04/05 10:18:52;;;;;;;;;;;;;;;5.29;100.00;97041.80;1632297;87;24507;-87
2022/04/05 10:21:20;;;;;;;;;;;;;;;5.34;100.00;97045.39;1632609;88;20233;-86
2022/04/05 10:23:46;;;;;;;;;;;;;;;5.40;100.00;97038.47;1633383;88;25037;-86
2022/04/05 10:26:18;;;;;;;;;;;;;;;5.43;100.00;97033.05;1632270;88;22135;-86
2022/04/05 10:28:45;;;;;;;;;;;;;;;5.45;100.00;97032.48;1632608;87;26042;-87
2022/04/05 10:31:30;;;;;;;;;;;;;;;5.51;100.00;97032.52;1632865;88;24524;-87
2022/04/05 10:34:06;;;;;;;;;;;;;;;5.58;100.00;97022.86;1632142;88;20210;-86
2022/04/05 10:36:33;;;;;;;;;;;;;;;5.67;100.00;97037.78;1631936;88;24998;-86
2022/04/05 10:39:00;;;;;;;;;;;;;;;5.78;100.00;97035.70;1632973;88;21963;-86
2022/04/05 10:41:30;;;;;;;;;;;;;;;5.92;100.00;97033.41;1629545;88;26716;-87
2022/04/05 10:44:11;;;;;;;;;;;;;;;6.05;100.00;97033.70;1632824;88;24465;-86
2022/04/05 10:46:41;;;;;;;;;;;;;;;6.10;100.00;97025.58;1597511;88;20257;-86
2022/04/05 10:49:08;;;;;;;;;;;;;;;6.20;100.00;97035.16;1631450;87;25082;-86
2022/04/05 10:51:53;;;;;;;;;;;;;;;6.31;100.00;97035.66;1633204;87;21990;-86
2022/04/05 10:54:19;;;;;;;;;;;;;;;6.37;100.00;97039.09;1633353;87;26058;-85
2022/04/05 10:57:04;;;;;;;;;;;;;;;6.44;100.00;97042.86;1635632;87;25287;-85
2022/04/05 10:59:33;;;;;;;;;;;;;;;6.47;100.00;97041.82;1635224;87;20343;-86
2022/04/05 11:01:59;;;;;;;;;;;;;;;6.52;100.00;97046.20;1632549;87;24906;-86
2022/04/05 11:04:29;;;;;;;;;;;;;;;6.57;100.00;97035.81;1635263;87;22245;-87
2022/04/05 11:07:02;;;;;;;;;;;;;;;6.64;100.00;97048.70;1635476;87;25993;-87
2022/04/05 11:09:30;;;;;;;;;;;;;;;6.71;100.00;97053.77;1634393;87;25052;-87
2022/04/05 11:11:57;;;;;;;;;;;;;;;6.77;100.00;97056.84;1634881;86;20228;-86
2022/04/05 11:14:39;;;;;;;;;;;;;;;6.83;100.00;97054.61;1635363;87;25644;-87
2022/04/05 11:17:06;;;;;;;;;;;;;;;6.86;100.00;97051.78;1635383;87;22932;-86
2022/04/05 11:19:36;;;;;;;;;;;;;;;6.84;100.00;97039.36;1635264;87;26172;-82
2022/04/05 11:22:06;;;;;;;;;;;;;;;6.87;100.00;97045.65;1634986;87;24511;-83
2022/04/05 11:24:51;;;;;;;;;;;;;;;6.96;100.00;97055.80;1634338;87;20311;-83
2022/04/05 11:27:31;;;;;;;;;;;;;;;7.04;100.00;97053.41;1634253;87;24982;-83
2022/04/05 11:30:15;;;;;;;;;;;;;;;7.15;100.00;97049.03;1634067;86;22071;-83
2022/04/05 11:33:00;;;;;;;;;;;;;;;7.33;100.00;97038.14;1633994;87;26834;-83
2022/04/05 11:35:27;;;;;;;;;;;;;;;7.38;100.00;97041.20;1634473;87;23933;-83
2022/04/05 11:37:53;;;;;;;;;;;;;;;7.43;100.00;97039.05;1633660;87;20241;-83
2022/04/05 11:40:19;;;;;;;;;;;;;;;7.54;100.00;97047.67;1634982;87;24973;-83
2022/04/05 11:42:48;;;;;;;;;;;;;;;7.69;100.00;97049.52;1635033;87;22134;-83
2022/04/05 11:45:15;;;;;;;;;;;;;;;7.70;100.00;97069.40;1633938;87;26013;-87
2022/04/05 11:47:41;;;;;;;;;;;;;;;7.73;100.00;97065.27;1633530;87;25374;-87
2022/04/05 11:50:09;;;;;;;;;;;;;;;7.70;100.00;97069.40;1634902;87;20287;-88
2022/04/05 11:52:35;;;;;;;;;;;;;;;7.72;100.00;97070.11;1633286;87;25747;-87
2022/04/05 11:57:47;;;;;;;;;;;;;;;7.81;100.00;97070.67;1621896;88;26067;-87
2022/04/05 12:00:14;;;;;;;;;;;;;;;7.92;100.00;97071.94;1632798;88;24617;-86
2022/04/05 12:02:40;;;;;;;;;;;;;;;7.90;100.00;97078.23;1633031;88;20748;-86
2022/04/05 12:05:06;;;;;;;;;;;;;;;7.89;100.00;97064.38;1633175;88;20289;-86
2022/04/05 12:07:33;;;;;;;;;;;;;;;8.02;100.00;97070.70;1632626;88;21905;-86
2022/04/05 12:09:59;;;;;;;;;;;;;;;8.11;100.00;97073.05;1632831;88;25987;-86
2022/04/05 12:12:26;;;;;;;;;;;;;;;8.27;100.00;97085.18;1632962;88;24413;-87
2022/04/05 12:14:52;;;;;;;;;;;;;;;8.33;100.00;97095.14;1633258;88;20233;-87
2022/04/05 12:17:20;;;;;;;;;;;;;;;8.36;100.00;97082.67;1632766;88;20208;-87
2022/04/05 12:19:46;;;;;;;;;;;;;;;8.34;100.00;97066.34;1632290;88;22079;-88
2022/04/05 12:22:16;;;;;;;;;;;;;;;8.23;100.00;97075.49;1632625;88;26639;-88
2022/04/05 12:24:42;;;;;;;;;;;;;;;8.18;100.00;97072.91;1632466;86;24425;-88
2022/04/05 12:27:09;;;;;;;;;;;;;;;8.21;100.00;97077.86;1632950;87;20251;-87
2022/04/05 12:29:39;;;;;;;;;;;;;;;8.24;100.00;97086.72;1632852;88;25803;-88
2022/04/05 12:32:12;;;;;;;;;;;;;;;8.28;100.00;97085.53;1632949;88;22105;-87
2022/04/05 12:34:39;;;;;;;;;;;;;;;8.36;100.00;97088.36;1633020;88;26077;-88
2022/04/05 12:37:05;;;;;;;;;;;;;;;8.42;100.00;97071.38;1632581;88;24379;-87
2022/04/05 12:39:33;;;;;;;;;;;;;;;8.50;100.00;97069.81;1632721;88;20307;-87
2022/04/05 12:42:13;;;;;;;;;;;;;;;8.57;100.00;97081.36;1632438;88;24950;-87
2022/04/05 12:44:47;;;;;;;;;;;;;;;8.54;100.00;97076.42;1631407;88;21999;-87
2022/04/05 12:47:16;;;;;;;;;;;;;;;8.56;100.00;97069.30;1632723;86;26961;-87
2022/04/05 12:49:43;;;;;;;;;;;;;;;8.56;100.00;97070.61;1633128;88;24498;-88
2022/04/05 12:52:11;;;;;;;;;;;;;;;8.58;100.00;97066.55;1630156;87;20265;-88
2022/04/05 12:54:42;;;;;;;;;;;;;;;8.59;100.00;97071.64;1626733;87;25091;-87